Ana Sayfa
METAR-TAF:

METAR-TAF

Havaalanları :

Nalçik Havalimanı

Nalçik, Rusya

Enlem: 43-30-46N, Boylam: 043-38-12E, yükseklik: 445 m

Güncel hava durumu gözlemi

Rapor saat 04:00 UTC de 15 dakika önce yapıldı.
Rüzgar batı/güneybatıdan 4 kt
Sıcaklık 0°C
Nem 100%
Basınç 1028 hPa
Görüş mesafesi: 0400 m
Donan sis

METAR: URMN 170400Z 24002MPS 0400 FZFG VV002 M00/M00 Q1028 R24/////// NOSIG RMK QBB060 MT OBSC OBST OBSC QFE734

Saat: 08:15 (04:15 UTC)

Tahmin

Rapor saat 02:00 UTC de 2 saat ve 15 dakika önce yapıldı.
Ayın 17'si saat 03 UTC'den ayın 17'si saat 12 UTC'ye kadar geçerli Tahmin
Rüzgar kuzeydoğudan 6 kt
Görüş mesafesi: 3100 m
500 ft yükseklikte çok bulutlu
Pus
Geçici
ayın 17'si saat 03 UTC'den ayın 17'si saat 09 UTC'ye kadar
Görüş mesafesi: 0500 m
200 ft yükseklikte çok bulutlu
Donan sis

TAF: URMN 170200Z 1703/1712 04003MPS 3100 BR OVC005 TEMPO 1703/1709 0500 FZFG OVC002

4.000'den fazla havaalanı için hava durumu gözlemleri ve tahminleri (METAR ve TAF raporları).

Kullanılabilir istasyonlar harita üzerinde sarı ve kırmızı noktalarla gösterilir.

İstasyonun adını görmek için fareyi noktanın üzerinde gezdirin.

Sonrasında hava gözlem ve tahminlerini görmek için tıklayın.

Haritayı değiştirmek için: yaklaştırmak için siyah artı işaretli yeşil düğmeye ve uzaklaştırmak için de eksi işaretli düğmeye hızla tıklayın; bitişik haritalar için yeşil okları kullanın.


METAR-TAF: